Time;durP1;ratioP1;P1;durP2;ratioP2;P2;SDS_P1;SDS_P2;PMS_P1;PMS_P2;Temp;Humidity;BMP_temperature;BMP_pressure;BME280_temperature;BME280_humidity;BME280_pressure;Samples;Min_cycle;Max_cycle;Signal;HPM_P1;HPM_P2
2022/06/04 00:04:42;;;;;;;13.80;9.77;;;;;;;;;;5111310;27;20454;-67
2022/06/04 00:07:08;;;;;;;12.23;9.18;;;;;;;;;;5110856;28;20023;-67
2022/06/04 00:09:34;;;;;;;12.75;9.15;;;;;;;;;;5111181;28;20028;-67
2022/06/04 00:17:30;;;;;;;11.40;9.27;;;;;;;;;;5111392;28;20084;-67
2022/06/04 00:19:56;;;;;;;11.18;7.95;;;;;;;;;;5110958;28;20020;-67
2022/06/04 00:26:06;;;;;;;11.52;8.48;;;;;;;;;;5111374;27;20401;-68
2022/06/04 00:28:32;;;;;;;10.65;7.15;;;;;;;;;;5110762;28;20032;-67
2022/06/04 00:30:59;;;;;;;10.95;7.88;;;;;;;;;;5111164;28;20028;-67
2022/06/04 00:37:38;;;;;;;13.88;8.20;;;;;;;;;;5111374;27;20414;-68
2022/06/04 00:40:05;;;;;;;11.40;7.25;;;;;;;;;;5111365;28;20357;-68
2022/06/04 00:44:21;;;;;;;11.82;7.60;;;;;;;;;;5111974;27;20426;-66
2022/06/04 00:47:36;;;;;;;9.77;7.00;;;;;;;;;;5112025;27;20582;-67
2022/06/04 00:50:04;;;;;;;9.98;6.80;;;;;;;;;;5110841;28;20050;-66
2022/06/04 00:53:35;;;;;;;10.45;6.70;;;;;;;;;;5112009;27;20900;-65
2022/06/04 00:58:27;;;;;;;9.73;7.20;;;;;;;;;;5111432;27;20541;-67
2022/06/04 01:04:47;;;;;;;9.82;7.15;;;;;;;;;;5111157;27;20785;-67
2022/06/04 01:07:29;;;;;;;11.45;7.72;;;;;;;;;;5111302;28;20027;-67
2022/06/04 01:10:43;;;;;;;10.80;7.90;;;;;;;;;;5172996;27;20133;-67
2022/06/04 01:15:25;;;;;;;16.83;9.23;;;;;;;;;;5111887;27;20389;-67
2022/06/04 01:22:05;;;;;;;11.95;8.15;;;;;;;;;;5111940;27;20414;-66
2022/06/04 01:24:41;;;;;;;11.07;7.53;;;;;;;;;;5110769;28;20073;-66
2022/06/04 01:27:13;;;;;;;10.35;7.38;;;;;;;;;;5111412;28;20365;-67
2022/06/04 01:32:10;;;;;;;11.32;8.15;;;;;;;;;;5110919;27;20392;-66
2022/06/04 01:34:43;;;;;;;10.88;8.48;;;;;;;;;;5111306;28;20035;-66
2022/06/04 01:38:24;;;;;;;13.82;9.70;;;;;;;;;;5110894;27;20418;-66
2022/06/04 01:43:55;;;;;;;10.85;7.65;;;;;;;;;;5111278;27;20573;-67
2022/06/04 01:46:21;;;;;;;11.43;8.85;;;;;;;;;;5110764;28;20024;-66
2022/06/04 01:48:49;;;;;;;14.98;10.00;;;;;;;;;;5111155;28;20101;-67
2022/06/04 01:51:59;;;;;;;11.25;7.97;;;;;;;;;;5111647;27;20408;-66
2022/06/04 01:54:27;;;;;;;14.98;8.77;;;;;;;;;;5110760;28;20466;-67
2022/06/04 01:56:56;;;;;;;11.95;8.70;;;;;;;;;;5111182;28;20024;-66
2022/06/04 01:59:22;;;;;;;11.55;9.43;;;;;;;;;;5110773;28;20528;-67
2022/06/04 02:01:52;;;;;;;12.35;8.80;;;;;;;;;;5111042;28;20404;-66
2022/06/04 02:04:20;;;;;;;12.15;9.27;;;;;;;;;;5110979;28;20030;-66
2022/06/04 02:16:15;;;;;;;10.23;7.72;;;;;;;;;;5152637;27;20559;-67
2022/06/04 02:19:20;;;;;;;12.05;9.07;;;;;;;;;;5111483;27;20381;-65
2022/06/04 02:21:46;;;;;;;12.23;8.52;;;;;;;;;;5111071;28;20051;-66
2022/06/04 02:24:33;;;;;;;14.95;9.30;;;;;;;;;;5111964;27;20823;-66
2022/06/04 02:27:01;;;;;;;11.90;8.27;;;;;;;;;;5111750;28;20415;-66
2022/06/04 02:29:27;;;;;;;10.68;7.95;;;;;;;;;;5110807;28;20085;-67
2022/06/04 02:32:01;;;;;;;12.07;9.60;;;;;;;;;;5111110;28;20039;-66
2022/06/04 02:34:45;;;;;;;13.57;9.65;;;;;;;;;;5110962;28;20383;-67
2022/06/04 02:37:54;;;;;;;11.95;9.98;;;;;;;;;;5111497;27;20406;-65
2022/06/04 02:40:25;;;;;;;13.63;8.80;;;;;;;;;;5111322;28;20036;-65
2022/06/04 02:42:54;;;;;;;10.80;8.38;;;;;;;;;;5110861;28;20099;-68
2022/06/04 02:45:36;;;;;;;11.20;8.57;;;;;;;;;;5111911;27;20381;-66
2022/06/04 02:50:59;;;;;;;11.00;8.18;;;;;;;;;;5111974;27;20418;-66
2022/06/04 02:55:14;;;;;;;10.85;7.88;;;;;;;;;;5111639;27;20985;-66
2022/06/04 02:57:59;;;;;;;10.98;7.50;;;;;;;;;;5111676;27;20427;-66
2022/06/04 03:00:27;;;;;;;9.82;6.45;;;;;;;;;;5111407;28;20055;-66
2022/06/04 03:04:43;;;;;;;12.55;8.38;;;;;;;;;;5110858;27;20411;-65
2022/06/04 03:07:10;;;;;;;11.27;7.90;;;;;;;;;;5111565;28;20077;-66
2022/06/04 03:09:38;;;;;;;11.55;8.05;;;;;;;;;;5110821;28;20031;-66
2022/06/04 03:13:57;;;;;;;13.15;9.38;;;;;;;;;;5110256;27;20455;-67
2022/06/04 03:18:00;;;;;;;9.95;7.60;;;;;;;;;;5110893;27;20422;-66
2022/06/04 03:24:39;;;;;;;10.70;7.97;;;;;;;;;;5111184;27;20381;-65
2022/06/04 03:28:07;;;;;;;10.05;7.03;;;;;;;;;;5111644;27;20989;-67
2022/06/04 03:30:34;;;;;;;9.20;6.82;;;;;;;;;;5110998;28;20379;-67
2022/06/04 03:33:00;;;;;;;11.90;7.43;;;;;;;;;;5111449;28;20040;-67
2022/06/04 03:35:27;;;;;;;11.82;7.93;;;;;;;;;;5111060;28;20145;-67
2022/06/04 03:38:33;;;;;;;11.00;8.10;;;;;;;;;;5070270;28;20429;-66
2022/06/04 03:40:59;;;;;;;12.05;8.38;;;;;;;;;;5070568;28;20021;-67
2022/06/04 03:43:25;;;;;;;11.20;7.72;;;;;;;;;;5070677;28;20098;-67
2022/06/04 03:46:35;;;;;;;12.32;7.90;;;;;;;;;;5110985;27;20393;-66
2022/06/04 03:50:32;;;;;;;12.30;7.88;;;;;;;;;;5111204;27;20418;-66
2022/06/04 03:54:04;;;;;;;13.68;8.73;;;;;;;;;;5112058;27;20385;-66
2022/06/04 03:57:37;;;;;;;11.95;9.18;;;;;;;;;;5111975;27;20389;-67
2022/06/04 04:01:21;;;;;;;12.35;8.00;;;;;;;;;;5112008;27;20418;-66
2022/06/04 04:04:46;;;;;;;14.63;8.65;;;;;;;;;;5111327;27;20987;-68
2022/06/04 04:07:13;;;;;;;13.25;7.60;;;;;;;;;;5110870;28;20111;-69
2022/06/04 04:09:39;;;;;;;12.57;8.70;;;;;;;;;;5111446;28;20023;-70
2022/06/04 04:20:22;;;;;;;11.70;8.43;;;;;;;;;;5111034;27;20389;-67
2022/06/04 04:22:49;;;;;;;11.82;8.43;;;;;;;;;;5111286;28;20468;-68
2022/06/04 04:25:16;;;;;;;10.30;7.18;;;;;;;;;;5111164;28;20026;-69
2022/06/04 04:28:02;;;;;;;12.65;7.68;;;;;;;;;;5111329;27;20385;-69
2022/06/04 04:30:30;;;;;;;10.50;8.02;;;;;;;;;;5111553;28;20024;-69
2022/06/04 04:32:56;;;;;;;11.20;8.35;;;;;;;;;;5111369;28;20028;-69
2022/06/04 04:35:24;;;;;;;12.73;8.13;;;;;;;;;;5110844;28;20085;-68
2022/06/04 04:37:50;;;;;;;10.25;8.07;;;;;;;;;;5111239;28;20464;-68
2022/06/04 04:40:18;;;;;;;9.45;7.57;;;;;;;;;;5111009;28;20499;-69
2022/06/04 04:44:52;;;;;;;11.18;6.93;;;;;;;;;;5112097;27;20397;-68
2022/06/04 04:47:19;;;;;;;12.25;7.22;;;;;;;;;;5111285;28;20504;-67
2022/06/04 04:51:23;;;;;;;10.40;7.38;;;;;;;;;;5102116;27;1524408;-67
2022/06/04 04:55:18;;;;;;;9.55;6.95;;;;;;;;;;5111032;27;20781;-69
2022/06/04 04:57:44;;;;;;;9.80;7.03;;;;;;;;;;5111517;28;20380;-68
2022/06/04 05:00:11;;;;;;;18.58;8.13;;;;;;;;;;5109954;28;20494;-67
2022/06/04 05:02:37;;;;;;;10.27;6.80;;;;;;;;;;5110762;28;20099;-68
2022/06/04 05:05:04;;;;;;;8.20;6.30;;;;;;;;;;5111290;28;20024;-68
2022/06/04 05:07:59;;;;;;;9.55;6.35;;;;;;;;;;5071111;28;20388;-67
2022/06/04 05:10:25;;;;;;;8.48;6.32;;;;;;;;;;5070377;28;20096;-69
2022/06/04 05:12:55;;;;;;;8.77;6.80;;;;;;;;;;5071139;28;20075;-68
2022/06/04 05:15:21;;;;;;;9.50;7.43;;;;;;;;;;5070719;28;20545;-69
2022/06/04 05:19:46;;;;;;;10.35;7.20;;;;;;;;;;5111626;27;20573;-66
2022/06/04 05:22:12;;;;;;;11.20;6.70;;;;;;;;;;5111418;28;20020;-66
2022/06/04 05:24:38;;;;;;;10.70;7.18;;;;;;;;;;5126611;28;20095;-66
2022/06/04 05:27:05;;;;;;;9.10;6.20;;;;;;;;;;5111168;28;20079;-67
2022/06/04 05:29:33;;;;;;;9.50;6.10;;;;;;;;;;5111047;28;20028;-67
2022/06/04 05:33:36;;;;;;;11.00;6.18;;;;;;;;;;5112061;27;20393;-68
2022/06/04 05:37:57;;;;;;;8.95;5.97;;;;;;;;;;5110899;27;20388;-65
2022/06/04 05:40:23;;;;;;;7.82;5.30;;;;;;;;;;5109866;28;20047;-67
2022/06/04 05:42:49;;;;;;;11.02;6.18;;;;;;;;;;5111183;28;20107;-67
2022/06/04 05:45:15;;;;;;;9.07;5.55;;;;;;;;;;5110784;28;20563;-69
2022/06/04 05:47:41;;;;;;;7.22;5.43;;;;;;;;;;5111104;28;20024;-68
2022/06/04 05:50:08;;;;;;;8.65;5.50;;;;;;;;;;5111088;28;20118;-67
2022/06/04 05:52:34;;;;;;;8.07;5.53;;;;;;;;;;5109400;28;20031;-68
2022/06/04 05:55:00;;;;;;;8.85;5.75;;;;;;;;;;5111440;28;20400;-67
2022/06/04 05:57:26;;;;;;;7.80;5.45;;;;;;;;;;5110919;28;20431;-68
2022/06/04 05:59:52;;;;;;;7.40;5.47;;;;;;;;;;5110462;28;20024;-69
2022/06/04 06:02:18;;;;;;;10.35;6.75;;;;;;;;;;5110907;28;20031;-68
2022/06/04 06:04:44;;;;;;;8.70;5.80;;;;;;;;;;5111031;28;20024;-68
2022/06/04 06:07:32;;;;;;;8.05;5.70;;;;;;;;;;5110963;27;20411;-68
2022/06/04 06:09:59;;;;;;;9.20;5.50;;;;;;;;;;5111238;28;20102;-68
2022/06/04 06:13:54;;;;;;;10.77;5.28;;;;;;;;;;5111071;27;20961;-67
2022/06/04 06:18:21;;;;;;;8.27;5.25;;;;;;;;;;5112024;27;20393;-67
2022/06/04 06:20:48;;;;;;;7.57;4.75;;;;;;;;;;5110722;28;20581;-67
2022/06/04 06:23:14;;;;;;;6.47;5.18;;;;;;;;;;5111070;28;20024;-67
2022/06/04 06:25:40;;;;;;;9.13;5.85;;;;;;;;;;5111232;28;20031;-67
2022/06/04 06:28:07;;;;;;;6.60;4.40;;;;;;;;;;5110698;28;20515;-67
2022/06/04 06:31:53;;;;;;;7.30;4.45;;;;;;;;;;5111682;27;20446;-68
2022/06/04 06:34:20;;;;;;;7.07;4.70;;;;;;;;;;5110989;28;20107;-67
2022/06/04 06:38:54;;;;;;;7.82;4.70;;;;;;;;;;5111339;27;20393;-68
2022/06/04 06:43:13;;;;;;;7.15;4.82;;;;;;;;;;5111867;27;20426;-67
2022/06/04 06:45:41;;;;;;;7.13;4.70;;;;;;;;;;5111226;28;20038;-68
2022/06/04 06:48:08;;;;;;;8.82;4.95;;;;;;;;;;5110822;28;20094;-67
2022/06/04 06:52:09;;;;;;;6.63;4.72;;;;;;;;;;5111977;27;20581;-67
2022/06/04 06:54:48;;;;;;;7.63;4.88;;;;;;;;;;5111587;27;20418;-67
2022/06/04 06:57:18;;;;;;;7.18;5.05;;;;;;;;;;5111247;28;20085;-68
2022/06/04 07:01:43;;;;;;;7.82;5.18;;;;;;;;;;5111384;27;20385;-67
2022/06/04 07:04:31;;;;;;;6.95;5.25;;;;;;;;;;5111592;27;20563;-67
2022/06/04 07:07:00;;;;;;;7.68;4.50;;;;;;;;;;5111098;28;20472;-67
2022/06/04 07:09:30;;;;;;;7.45;4.93;;;;;;;;;;5110815;28;20031;-67
2022/06/04 07:14:02;;;;;;;6.75;4.28;;;;;;;;;;5111604;27;20457;-68
2022/06/04 07:16:28;;;;;;;7.97;4.75;;;;;;;;;;5110755;28;20030;-67
2022/06/04 07:18:54;;;;;;;7.18;5.25;;;;;;;;;;5111270;28;20379;-67
2022/06/04 07:21:20;;;;;;;8.63;5.70;;;;;;;;;;5111011;28;20409;-67
2022/06/04 07:23:47;;;;;;;7.70;4.63;;;;;;;;;;5110501;28;20365;-67
2022/06/04 07:26:13;;;;;;;8.68;5.65;;;;;;;;;;5110968;28;20028;-68
2022/06/04 07:28:40;;;;;;;8.57;5.40;;;;;;;;;;5110953;28;20477;-67
2022/06/04 07:31:07;;;;;;;7.93;5.40;;;;;;;;;;5110492;28;20430;-66
2022/06/04 07:33:34;;;;;;;8.05;5.80;;;;;;;;;;5110812;28;20116;-68
2022/06/04 07:36:21;;;;;;;10.25;5.75;;;;;;;;;;5112020;27;20865;-67
2022/06/04 07:40:14;;;;;;;7.45;5.55;;;;;;;;;;5111849;27;20446;-67
2022/06/04 07:42:41;;;;;;;8.52;5.32;;;;;;;;;;5111081;28;20027;-68
2022/06/04 07:45:08;;;;;;;7.80;5.32;;;;;;;;;;5110554;28;20024;-66
2022/06/04 07:47:34;;;;;;;8.50;5.55;;;;;;;;;;5111061;28;20380;-67
2022/06/04 07:50:01;;;;;;;13.68;6.30;;;;;;;;;;5109643;28;20051;-67
2022/06/04 07:52:27;;;;;;;10.27;6.38;;;;;;;;;;5110560;28;20029;-67
2022/06/04 07:54:54;;;;;;;7.75;4.95;;;;;;;;;;5111020;28;20058;-67
2022/06/04 07:57:20;;;;;;;11.20;6.07;;;;;;;;;;5110920;28;20052;-67
2022/06/04 07:59:48;;;;;;;8.20;5.18;;;;;;;;;;5110495;28;20036;-67
2022/06/04 08:02:15;;;;;;;8.30;5.45;;;;;;;;;;5111014;28;20055;-68
2022/06/04 08:04:41;;;;;;;6.63;4.75;;;;;;;;;;5110842;28;20028;-68
2022/06/04 08:07:07;;;;;;;7.75;5.03;;;;;;;;;;5110445;28;20174;-67
2022/06/04 08:09:34;;;;;;;8.70;5.28;;;;;;;;;;5111177;28;20028;-68
2022/06/04 08:12:00;;;;;;;8.82;5.50;;;;;;;;;;5110326;28;20020;-67
2022/06/04 08:14:26;;;;;;;9.25;5.85;;;;;;;;;;5109391;28;20030;-69
2022/06/04 08:16:57;;;;;;;7.05;4.75;;;;;;;;;;5110561;28;20031;-68
2022/06/04 08:19:24;;;;;;;8.95;6.45;;;;;;;;;;5110042;28;20036;-66
2022/06/04 08:21:51;;;;;;;9.35;6.55;;;;;;;;;;5110542;28;20024;-67
2022/06/04 08:24:18;;;;;;;7.38;5.40;;;;;;;;;;5110473;28;20024;-67
2022/06/04 08:26:45;;;;;;;8.32;5.63;;;;;;;;;;5110138;28;20028;-68
2022/06/04 08:29:12;;;;;;;6.97;5.18;;;;;;;;;;5110726;28;20023;-67
2022/06/04 08:31:38;;;;;;;8.57;5.45;;;;;;;;;;5110768;28;20016;-67
2022/06/04 08:34:05;;;;;;;7.05;5.50;;;;;;;;;;5109872;28;20024;-67
2022/06/04 08:37:06;;;;;;;8.77;4.85;;;;;;;;;;5111826;27;20119;-67
2022/06/04 08:39:33;;;;;;;12.07;6.70;;;;;;;;;;5111245;28;20038;-68
2022/06/04 08:42:11;;;;;;;7.85;5.57;;;;;;;;;;5111021;28;20043;-67
2022/06/04 08:44:48;;;;;;;8.57;6.20;;;;;;;;;;5111213;28;20016;-68
2022/06/04 08:47:27;;;;;;;7.35;5.75;;;;;;;;;;5110928;28;20024;-67
2022/06/04 08:50:05;;;;;;;12.30;5.95;;;;;;;;;;5110984;28;20027;-68
2022/06/04 08:52:38;;;;;;;9.07;5.97;;;;;;;;;;5110983;28;20028;-67
2022/06/04 08:59:32;;;;;;;8.73;5.70;;;;;;;;;;5111352;28;20391;-69
2022/06/04 09:02:00;;;;;;;7.53;5.53;;;;;;;;;;5110848;28;20106;-68
2022/06/04 09:06:31;;;;;;;9.23;5.13;;;;;;;;;;5111212;27;20415;-67
2022/06/04 09:08:57;;;;;;;8.00;4.97;;;;;;;;;;5126623;28;20502;-66
2022/06/04 09:11:45;;;;;;;7.57;5.15;;;;;;;;;;5111189;28;20031;-67
2022/06/04 09:14:20;;;;;;;7.30;5.13;;;;;;;;;;5111274;28;20016;-67
2022/06/04 09:16:59;;;;;;;7.10;5.20;;;;;;;;;;5110756;28;20028;-68
2022/06/04 09:19:27;;;;;;;8.05;5.00;;;;;;;;;;5111111;28;20039;-69
2022/06/04 09:21:54;;;;;;;10.80;6.38;;;;;;;;;;5110983;28;20103;-67
2022/06/04 09:24:20;;;;;;;6.72;4.45;;;;;;;;;;5110477;28;20024;-69
2022/06/04 09:27:04;;;;;;;7.68;4.90;;;;;;;;;;5111169;28;20020;-67
2022/06/04 09:29:48;;;;;;;8.18;5.70;;;;;;;;;;5110543;28;20028;-68
2022/06/04 09:32:24;;;;;;;9.18;5.28;;;;;;;;;;5110778;28;20020;-68
2022/06/04 09:34:51;;;;;;;11.48;5.88;;;;;;;;;;5110662;28;20554;-67
2022/06/04 09:37:18;;;;;;;6.85;4.78;;;;;;;;;;5110245;28;20126;-66
2022/06/04 09:39:48;;;;;;;7.40;5.05;;;;;;;;;;5110767;28;20130;-67
2022/06/04 09:42:14;;;;;;;8.23;4.90;;;;;;;;;;5110614;28;20018;-67
2022/06/04 09:44:50;;;;;;;8.73;5.45;;;;;;;;;;5109980;28;20042;-66
2022/06/04 09:47:18;;;;;;;6.25;4.28;;;;;;;;;;5110492;28;20027;-67
2022/06/04 09:49:50;;;;;;;8.60;5.20;;;;;;;;;;5110535;28;20020;-67
2022/06/04 09:52:23;;;;;;;7.57;5.07;;;;;;;;;;5110087;28;20027;-67
2022/06/04 09:54:49;;;;;;;;;;;;;;;;;;5110728;28;20102;-67
2022/06/04 09:57:29;;;;;;;9.18;5.03;;;;;;;;;;5110309;28;19954;-67
2022/06/04 09:59:56;;;;;;;7.70;4.85;;;;;;;;;;5110416;28;20422;-67
2022/06/04 10:02:23;;;;;;;8.00;4.82;;;;;;;;;;5110229;28;20074;-67
2022/06/04 10:04:51;;;;;;;8.18;5.15;;;;;;;;;;5109454;28;20055;-69
2022/06/04 10:07:29;;;;;;;6.47;4.35;;;;;;;;;;5125965;28;20020;-67
2022/06/04 10:09:58;;;;;;;8.15;4.10;;;;;;;;;;5125881;28;20415;-67
2022/06/04 10:15:26;;;;;;;5.57;3.70;;;;;;;;;;5109728;28;20081;-67
2022/06/04 10:18:06;;;;;;;7.28;4.72;;;;;;;;;;5096064;28;20028;-68
2022/06/04 10:20:33;;;;;;;7.63;4.47;;;;;;;;;;5095974;28;20036;-67
2022/06/04 10:22:59;;;;;;;8.90;4.40;;;;;;;;;;5096276;28;20473;-67
2022/06/04 10:25:44;;;;;;;8.00;5.25;;;;;;;;;;5096348;28;20542;-68
2022/06/04 10:28:17;;;;;;;7.10;4.35;;;;;;;;;;5096107;28;20469;-68
2022/06/04 10:30:48;;;;;;;6.30;4.50;;;;;;;;;;5096353;28;20064;-67
2022/06/04 10:33:17;;;;;;;6.70;4.40;;;;;;;;;;5111347;28;20073;-68
2022/06/04 10:35:52;;;;;;;5.63;3.80;;;;;;;;;;5095919;28;20032;-68
2022/06/04 10:38:27;;;;;;;7.72;4.28;;;;;;;;;;5095930;28;20016;-67
2022/06/04 10:41:02;;;;;;;8.40;4.25;;;;;;;;;;5095710;28;20384;-66
2022/06/04 10:43:54;;;;;;;6.05;4.03;;;;;;;;;;5096104;28;20016;-67
2022/06/04 10:46:27;;;;;;;8.07;4.10;;;;;;;;;;5096108;28;20066;-67
2022/06/04 10:49:11;;;;;;;6.95;3.95;;;;;;;;;;5095372;28;20031;-67
2022/06/04 10:51:40;;;;;;;9.85;3.65;;;;;;;;;;5095751;28;20024;-67
2022/06/04 10:54:06;;;;;;;5.47;3.97;;;;;;;;;;5095231;28;20069;-69
2022/06/04 10:56:40;;;;;;;6.53;3.90;;;;;;;;;;5095583;28;20435;-68
2022/06/04 10:59:12;;;;;;;6.30;3.97;;;;;;;;;;5095590;28;20016;-68
2022/06/04 11:01:46;;;;;;;6.28;3.80;;;;;;;;;;5095166;28;20024;-69
2022/06/04 11:04:35;;;;;;;7.18;3.58;;;;;;;;;;5095252;28;20032;-68
2022/06/04 11:07:07;;;;;;;5.88;3.60;;;;;;;;;;5095695;28;20091;-66
2022/06/04 11:09:38;;;;;;;7.50;4.47;;;;;;;;;;5095076;28;20024;-68
2022/06/04 11:12:24;;;;;;;6.10;3.58;;;;;;;;;;5111357;28;20103;-68
2022/06/04 11:14:55;;;;;;;8.73;4.57;;;;;;;;;;5090853;28;20032;-67
2022/06/04 11:17:30;;;;;;;5.53;3.53;;;;;;;;;;5095162;28;20028;-67
2022/06/04 11:20:05;;;;;;;5.43;3.67;;;;;;;;;;5095007;28;20024;-67
2022/06/04 11:22:34;;;;;;;5.03;3.30;;;;;;;;;;5094909;28;20522;-67
2022/06/04 11:25:24;;;;;;;6.78;3.45;;;;;;;;;;5095192;28;20036;-69
2022/06/04 11:27:54;;;;;;;7.20;3.95;;;;;;;;;;5109701;28;20142;-68
2022/06/04 11:30:26;;;;;;;6.00;3.72;;;;;;;;;;5110255;28;20035;-68
2022/06/04 11:33:05;;;;;;;6.45;4.05;;;;;;;;;;5094872;28;20051;-68
2022/06/04 11:35:44;;;;;;;5.55;3.90;;;;;;;;;;5095021;28;20028;-67
2022/06/04 11:38:16;;;;;;;7.00;4.15;;;;;;;;;;5094327;28;20027;-66
2022/06/04 11:40:58;;;;;;;7.50;4.07;;;;;;;;;;5095029;28;20046;-69
2022/06/04 11:43:33;;;;;;;4.87;3.70;;;;;;;;;;5094597;28;20035;-67
2022/06/04 11:46:04;;;;;;;5.72;3.90;;;;;;;;;;5094606;28;20028;-67
2022/06/04 11:48:36;;;;;;;5.35;3.22;;;;;;;;;;5094737;28;20438;-67
2022/06/04 11:51:21;;;;;;;7.72;4.15;;;;;;;;;;5094102;28;20035;-67
2022/06/04 11:53:59;;;;;;;6.97;4.55;;;;;;;;;;5094838;28;20022;-68
2022/06/04 11:56:28;;;;;;;7.25;4.35;;;;;;;;;;5094383;28;20025;-68
2022/06/04 11:58:54;;;;;;;7.57;4.45;;;;;;;;;;5093920;28;20025;-67
2022/06/04 12:01:30;;;;;;;8.48;4.35;;;;;;;;;;5094316;28;20031;-68
2022/06/04 12:03:58;;;;;;;6.80;4.38;;;;;;;;;;5093798;28;20017;-68
2022/06/04 12:06:30;;;;;;;9.27;3.90;;;;;;;;;;5094394;28;20540;-68
2022/06/04 12:09:02;;;;;;;6.45;3.85;;;;;;;;;;5109936;28;20028;-67
2022/06/04 12:11:28;;;;;;;6.80;4.10;;;;;;;;;;5094227;28;20020;-70
2022/06/04 12:14:17;;;;;;;6.22;3.63;;;;;;;;;;5094116;28;20053;-67
2022/06/04 12:16:56;;;;;;;5.38;3.35;;;;;;;;;;5083818;28;20032;-68
2022/06/04 12:25:00;;;;;;;6.20;3.25;;;;;;;;;;5093915;28;20065;-68
2022/06/04 12:27:27;;;;;;;6.00;3.53;;;;;;;;;;5094061;28;20060;-68
2022/06/04 12:29:54;;;;;;;5.15;3.33;;;;;;;;;;5093900;28;20028;-67
2022/06/04 12:32:31;;;;;;;5.60;3.40;;;;;;;;;;5109145;28;20392;-67
2022/06/04 12:35:09;;;;;;;8.55;3.80;;;;;;;;;;5109459;28;20477;-71
2022/06/04 12:37:37;;;;;;;6.05;3.53;;;;;;;;;;5093682;28;20024;-68
2022/06/04 12:40:15;;;;;;;4.53;3.00;;;;;;;;;;5093044;28;20028;-67
2022/06/04 12:42:45;;;;;;;10.20;3.55;;;;;;;;;;5093732;28;20054;-67
2022/06/04 12:45:30;;;;;;;5.10;3.25;;;;;;;;;;5109301;28;20115;-68
2022/06/04 12:47:57;;;;;;;4.35;3.25;;;;;;;;;;5093256;28;20369;-70
2022/06/04 12:50:26;;;;;;;4.45;3.10;;;;;;;;;;5093516;28;20024;-68
2022/06/04 12:53:01;;;;;;;4.72;3.17;;;;;;;;;;5093818;28;20060;-68
2022/06/04 12:55:36;;;;;;;6.22;3.35;;;;;;;;;;5093087;28;20028;-71
2022/06/04 12:58:24;;;;;;;6.10;3.15;;;;;;;;;;5093520;28;20028;-67
2022/06/04 13:00:57;;;;;;;6.13;2.95;;;;;;;;;;5093415;28;20070;-67
2022/06/04 13:03:33;;;;;;;5.47;2.33;;;;;;;;;;5093406;28;20477;-68
2022/06/04 13:06:02;;;;;;;3.88;2.47;;;;;;;;;;5093252;28;20054;-69
2022/06/04 13:08:34;;;;;;;4.45;2.45;;;;;;;;;;5093347;28;20044;-68
2022/06/04 13:11:15;;;;;;;3.25;2.20;;;;;;;;;;5093363;28;20055;-68
2022/06/04 13:13:50;;;;;;;3.33;2.20;;;;;;;;;;5109132;28;20357;-68
2022/06/04 13:16:29;;;;;;;3.15;1.98;;;;;;;;;;5093102;28;20021;-69
2022/06/04 13:19:08;;;;;;;4.07;2.20;;;;;;;;;;5093279;28;20034;-68
2022/06/04 13:21:37;;;;;;;4.18;2.40;;;;;;;;;;5093120;28;20028;-68
2022/06/04 13:24:05;;;;;;;3.30;2.15;;;;;;;;;;5093165;28;20507;-68
2022/06/04 13:26:45;;;;;;;2.90;2.00;;;;;;;;;;5093297;28;20062;-68
2022/06/04 13:29:25;;;;;;;3.70;2.20;;;;;;;;;;5092965;28;20353;-68
2022/06/04 13:31:58;;;;;;;3.95;2.80;;;;;;;;;;5093181;28;20039;-67
2022/06/04 13:34:26;;;;;;;3.70;1.90;;;;;;;;;;5093360;28;20024;-68
2022/06/04 13:37:03;;;;;;;6.70;3.03;;;;;;;;;;5092806;28;20044;-67
2022/06/04 13:39:30;;;;;;;4.57;2.50;;;;;;;;;;5093030;28;20028;-68
2022/06/04 13:42:01;;;;;;;5.28;2.08;;;;;;;;;;5093033;28;20028;-71
2022/06/04 13:44:27;;;;;;;3.65;2.33;;;;;;;;;;5092871;28;20028;-69
2022/06/04 13:47:15;;;;;;;4.30;2.15;;;;;;;;;;5093178;28;20036;-67
2022/06/04 13:49:42;;;;;;;3.38;2.30;;;;;;;;;;5089022;28;20573;-68
2022/06/04 13:52:14;;;;;;;3.63;2.40;;;;;;;;;;5095330;28;20476;-68
2022/06/04 13:54:53;;;;;;;14.65;3.95;;;;;;;;;;5096721;28;20028;-68
2022/06/04 13:57:22;;;;;;;3.97;2.50;;;;;;;;;;5096255;28;20100;-68
2022/06/04 13:59:50;;;;;;;4.35;2.25;;;;;;;;;;5096664;28;20473;-67
2022/06/04 14:02:17;;;;;;;4.65;2.67;;;;;;;;;;5096614;28;20103;-67
2022/06/04 14:07:34;;;;;;;3.67;2.10;;;;;;;;;;5096975;28;20039;-68
2022/06/04 14:10:00;;;;;;;4.03;2.55;;;;;;;;;;5112277;28;20036;-68
2022/06/04 14:12:32;;;;;;;5.90;2.35;;;;;;;;;;5096006;28;20028;-68
2022/06/04 14:14:58;;;;;;;4.00;2.38;;;;;;;;;;5096656;28;20028;-68
2022/06/04 14:17:24;;;;;;;8.60;3.17;;;;;;;;;;5096845;28;20030;-66
2022/06/04 14:19:53;;;;;;;4.40;3.17;;;;;;;;;;5095901;28;20491;-67
2022/06/04 14:22:23;;;;;;;6.55;3.00;;;;;;;;;;5096316;28;20036;-67
2022/06/04 14:24:58;;;;;;;6.50;2.90;;;;;;;;;;5095779;28;20089;-67
2022/06/04 14:27:39;;;;;;;5.55;3.10;;;;;;;;;;5096403;28;20044;-67
2022/06/04 14:30:17;;;;;;;3.72;2.35;;;;;;;;;;5096081;28;20024;-67
2022/06/04 14:32:52;;;;;;;5.32;3.15;;;;;;;;;;5095816;28;20020;-67
2022/06/04 14:35:18;;;;;;;4.70;2.88;;;;;;;;;;5096062;28;20031;-68
2022/06/04 14:37:46;;;;;;;7.03;3.20;;;;;;;;;;5096030;28;20106;-68
2022/06/04 14:40:13;;;;;;;4.63;3.22;;;;;;;;;;5111251;28;20550;-69
2022/06/04 14:43:00;;;;;;;4.47;2.55;;;;;;;;;;5095997;28;20024;-67
2022/06/04 14:45:56;;;;;;;4.97;3.00;;;;;;;;;;5095659;28;20067;-67
2022/06/04 14:48:25;;;;;;;6.10;2.80;;;;;;;;;;5096055;28;20395;-68
2022/06/04 14:50:57;;;;;;;4.85;3.15;;;;;;;;;;5095825;28;20020;-67
2022/06/04 14:53:24;;;;;;;4.25;2.72;;;;;;;;;;5095509;28;20032;-68
2022/06/04 14:56:08;;;;;;;5.88;3.05;;;;;;;;;;5095733;28;20093;-68
2022/06/04 14:58:37;;;;;;;5.80;3.10;;;;;;;;;;5096150;28;20056;-67
2022/06/04 15:01:05;;;;;;;4.80;2.60;;;;;;;;;;5095287;28;20085;-68
2022/06/04 15:03:57;;;;;;;3.67;2.35;;;;;;;;;;5095472;28;20017;-68
2022/06/04 15:06:29;;;;;;;5.73;2.90;;;;;;;;;;5094668;28;20488;-68
2022/06/04 15:08:59;;;;;;;3.47;2.05;;;;;;;;;;5094966;28;20721;-68
2022/06/04 15:11:37;;;;;;;6.78;2.30;;;;;;;;;;5110985;28;20476;-68
2022/06/04 15:14:09;;;;;;;3.80;1.60;;;;;;;;;;5095105;28;20090;-67
2022/06/04 15:16:36;;;;;;;;;;;;;;;;;;5095904;28;20498;-66
2022/06/04 15:19:05;;;;;;;5.13;2.30;;;;;;;;;;5095246;28;19903;-67
2022/06/04 15:21:37;;;;;;;6.80;2.55;;;;;;;;;;5095130;28;20380;-67
2022/06/04 15:24:22;;;;;;;4.43;2.40;;;;;;;;;;5094980;28;20449;-68
2022/06/04 15:27:03;;;;;;;4.32;2.25;;;;;;;;;;5095175;28;20388;-68
2022/06/04 15:35:28;;;;;;;5.20;2.20;;;;;;;;;;5094833;28;20081;-67
2022/06/04 15:38:14;;;;;;;1.90;1.50;;;;;;;;;;5094828;28;20020;-67
2022/06/04 15:41:10;;;;;;;3.58;2.00;;;;;;;;;;5095112;28;20073;-68
2022/06/04 15:43:36;;;;;;;2.20;1.50;;;;;;;;;;5089488;28;20063;-69
2022/06/04 15:46:09;;;;;;;1.45;1.30;;;;;;;;;;5094581;28;20032;-68
2022/06/04 15:48:39;;;;;;;3.20;2.13;;;;;;;;;;5094622;28;20070;-68
2022/06/04 15:57:26;;;;;;;3.58;1.90;;;;;;;;;;5094472;28;20046;-67
2022/06/04 15:59:58;;;;;;;3.45;1.92;;;;;;;;;;5094636;28;20089;-67
2022/06/04 16:02:31;;;;;;;2.83;1.50;;;;;;;;;;5094342;28;20052;-67
2022/06/04 16:04:58;;;;;;;2.45;1.63;;;;;;;;;;5093630;28;20132;-67
2022/06/04 16:07:30;;;;;;;2.80;1.65;;;;;;;;;;5094529;28;20035;-67
2022/06/04 16:09:56;;;;;;;;;;;;;;;;;;5094614;28;20024;-67
2022/06/04 16:12:35;;;;;;;2.88;1.70;;;;;;;;;;5093854;28;19904;-67
2022/06/04 16:15:15;;;;;;;3.38;1.75;;;;;;;;;;5093622;28;20035;-67
2022/06/04 16:17:48;;;;;;;4.32;2.33;;;;;;;;;;5094041;28;20413;-68
2022/06/04 16:20:23;;;;;;;5.75;2.67;;;;;;;;;;5094388;28;20020;-67
2022/06/04 16:23:08;;;;;;;4.88;2.33;;;;;;;;;;5109724;28;20040;-66
2022/06/04 16:25:35;;;;;;;6.07;2.35;;;;;;;;;;5093498;28;20029;-66
2022/06/04 16:28:01;;;;;;;4.10;2.30;;;;;;;;;;5093900;28;20020;-67
2022/06/04 16:30:28;;;;;;;6.90;3.00;;;;;;;;;;5093838;28;20020;-67
2022/06/04 16:33:03;;;;;;;5.95;3.10;;;;;;;;;;5108880;28;20030;-67
2022/06/04 16:35:29;;;;;;;6.15;3.00;;;;;;;;;;5109329;28;20028;-66
2022/06/04 16:38:23;;;;;;;7.05;2.90;;;;;;;;;;5093820;28;20468;-66
2022/06/04 16:43:34;;;;;;;4.53;2.97;;;;;;;;;;5093809;28;20077;-66
2022/06/04 16:46:02;;;;;;;8.02;2.80;;;;;;;;;;5093094;28;20028;-67
2022/06/04 16:48:29;;;;;;;6.13;3.92;;;;;;;;;;5109160;28;20438;-67
2022/06/04 16:50:59;;;;;;;9.50;3.63;;;;;;;;;;5093728;28;20103;-67
2022/06/04 16:53:30;;;;;;;6.32;3.08;;;;;;;;;;5093352;28;20020;-67
2022/06/04 16:55:56;;;;;;;7.03;3.00;;;;;;;;;;5093454;28;20523;-67
2022/06/04 16:58:22;;;;;;;7.85;3.20;;;;;;;;;;5093441;28;20028;-68
2022/06/04 17:00:49;;;;;;;7.53;2.72;;;;;;;;;;5092844;28;20066;-67
2022/06/04 17:03:22;;;;;;;5.97;2.60;;;;;;;;;;5093552;28;20051;-67
2022/06/04 17:05:57;;;;;;;5.03;2.80;;;;;;;;;;5093265;28;20150;-67
2022/06/04 17:08:40;;;;;;;7.65;2.88;;;;;;;;;;5092961;28;20026;-67
2022/06/04 17:11:13;;;;;;;8.50;3.08;;;;;;;;;;5093521;28;20020;-67
2022/06/04 17:13:58;;;;;;;6.65;3.75;;;;;;;;;;5093218;28;20058;-67
2022/06/04 17:16:50;;;;;;;7.80;2.65;;;;;;;;;;5093372;28;20361;-67
2022/06/04 17:19:26;;;;;;;5.15;3.17;;;;;;;;;;5092249;28;20044;-68
2022/06/04 17:22:09;;;;;;;6.55;3.00;;;;;;;;;;5092889;28;20024;-66
2022/06/04 17:24:37;;;;;;;6.20;2.83;;;;;;;;;;5093309;28;20032;-66
2022/06/04 17:27:22;;;;;;;4.43;2.50;;;;;;;;;;5095525;28;20028;-67